sensor_id;sensor_type;location;lat;lon;timestamp;pressure;altitude;pressure_sealevel;temperature;humidity
80798;BME280;70202;52.238;10.680;2023-10-13T00:00:08;99909.63;;;16.11;100.00
80798;BME280;70202;52.238;10.680;2023-10-13T00:01:25;99920.09;;;16.19;100.00
80798;BME280;70202;52.238;10.680;2023-10-13T00:02:26;99929.91;;;16.23;100.00
80798;BME280;70202;52.238;10.680;2023-10-13T00:03:26;99908.75;;;16.11;100.00
80798;BME280;70202;52.238;10.680;2023-10-13T00:04:32;99928.91;;;16.24;100.00
80798;BME280;70202;52.238;10.680;2023-10-13T00:05:35;99929.78;;;16.24;100.00
80798;BME280;70202;52.238;10.680;2023-10-13T00:06:36;99921.75;;;16.21;100.00
80798;BME280;70202;52.238;10.680;2023-10-13T00:07:37;99911.94;;;16.17;100.00
80798;BME280;70202;52.238;10.680;2023-10-13T00:08:38;99923.50;;;16.22;100.00
80798;BME280;70202;52.238;10.680;2023-10-13T00:09:39;99917.72;;;16.27;100.00
80798;BME280;70202;52.238;10.680;2023-10-13T00:10:41;99922.22;;;16.28;100.00
80798;BME280;70202;52.238;10.680;2023-10-13T00:11:42;99898.53;;;16.13;100.00
80798;BME280;70202;52.238;10.680;2023-10-13T00:12:46;99925.84;;;16.29;100.00
80798;BME280;70202;52.238;10.680;2023-10-13T00:13:49;99893.81;;;16.15;100.00
80798;BME280;70202;52.238;10.680;2023-10-13T00:14:54;99911.75;;;16.20;100.00
80798;BME280;70202;52.238;10.680;2023-10-13T00:15:54;99922.22;;;16.28;100.00
80798;BME280;70202;52.238;10.680;2023-10-13T00:17:03;99917.81;;;16.25;100.00
80798;BME280;70202;52.238;10.680;2023-10-13T00:18:08;99903.63;;;16.19;100.00
80798;BME280;70202;52.238;10.680;2023-10-13T00:19:12;99915.06;;;16.25;100.00
80798;BME280;70202;52.238;10.680;2023-10-13T00:20:13;99920.03;;;16.33;100.00
80798;BME280;70202;52.238;10.680;2023-10-13T00:21:17;99907.69;;;16.26;100.00
80798;BME280;70202;52.238;10.680;2023-10-13T00:22:31;99918.16;;;16.34;100.00
80798;BME280;70202;52.238;10.680;2023-10-13T00:23:31;99921.78;;;16.34;100.00
80798;BME280;70202;52.238;10.680;2023-10-13T00:24:32;99916.28;;;16.34;100.00
80798;BME280;70202;52.238;10.680;2023-10-13T00:25:41;99905.06;;;16.24;100.00
80798;BME280;70202;52.238;10.680;2023-10-13T00:26:50;99906.72;;;16.27;100.00
80798;BME280;70202;52.238;10.680;2023-10-13T00:27:54;99886.34;;;16.17;100.00
80798;BME280;70202;52.238;10.680;2023-10-13T00:28:57;99906.72;;;16.27;100.00
80798;BME280;70202;52.238;10.680;2023-10-13T00:30:12;99895.06;;;16.23;100.00
80798;BME280;70202;52.238;10.680;2023-10-13T00:31:21;99909.34;;;16.29;100.00
80798;BME280;70202;52.238;10.680;2023-10-13T00:32:22;99917.41;;;16.32;100.00
80798;BME280;70202;52.238;10.680;2023-10-13T00:33:27;99903.19;;;16.25;100.00
80798;BME280;70202;52.238;10.680;2023-10-13T00:34:27;99877.66;;;16.10;100.00
80798;BME280;70202;52.238;10.680;2023-10-13T00:35:29;99885.56;;;16.15;100.00
80798;BME280;70202;52.238;10.680;2023-10-13T00:36:35;99892.72;;;16.17;100.00
80798;BME280;70202;52.238;10.680;2023-10-13T00:37:36;99916.59;;;16.30;100.00
80798;BME280;70202;52.238;10.680;2023-10-13T00:38:43;99905.63;;;16.30;100.00
80798;BME280;70202;52.238;10.680;2023-10-13T00:39:48;99904.84;;;16.28;100.00
80798;BME280;70202;52.238;10.680;2023-10-13T00:40:48;99900.63;;;16.22;100.00
80798;BME280;70202;52.238;10.680;2023-10-13T00:41:52;99900.56;;;16.23;100.00
80798;BME280;70202;52.238;10.680;2023-10-13T00:42:53;99898.56;;;16.25;100.00
80798;BME280;70202;52.238;10.680;2023-10-13T00:43:54;99882.72;;;16.16;100.00
80798;BME280;70202;52.238;10.680;2023-10-13T00:45:09;99906.59;;;16.29;100.00
80798;BME280;70202;52.238;10.680;2023-10-13T00:46:16;99880.16;;;16.13;100.00
80798;BME280;70202;52.238;10.680;2023-10-13T00:47:19;99898.25;;;16.30;100.00
80798;BME280;70202;52.238;10.680;2023-10-13T00:48:38;99888.69;;;16.23;100.00
80798;BME280;70202;52.238;10.680;2023-10-13T00:49:55;99897.38;;;16.30;100.00
80798;BME280;70202;52.238;10.680;2023-10-13T00:51:04;99891.97;;;16.28;100.00
80798;BME280;70202;52.238;10.680;2023-10-13T00:52:07;99898.16;;;16.32;100.00
80798;BME280;70202;52.238;10.680;2023-10-13T00:53:10;99883.94;;;16.25;100.00
80798;BME280;70202;52.238;10.680;2023-10-13T00:54:12;99901.78;;;16.32;100.00
80798;BME280;70202;52.238;10.680;2023-10-13T00:55:13;99889.31;;;16.27;100.00
80798;BME280;70202;52.238;10.680;2023-10-13T00:56:14;99901.66;;;16.34;100.00
80798;BME280;70202;52.238;10.680;2023-10-13T00:57:19;99883.06;;;16.24;100.00
80798;BME280;70202;52.238;10.680;2023-10-13T00:58:30;99883.94;;;16.25;100.00
80798;BME280;70202;52.238;10.680;2023-10-13T00:59:30;99901.66;;;16.34;100.00
80798;BME280;70202;52.238;10.680;2023-10-13T01:00:36;99887.47;;;16.27;100.00
80798;BME280;70202;52.238;10.680;2023-10-13T01:01:47;99901.56;;;16.35;100.00
80798;BME280;70202;52.238;10.680;2023-10-13T01:02:54;99884.63;;;16.29;100.00
80798;BME280;70202;52.238;10.680;2023-10-13T01:04:05;99894.63;;;16.30;100.00
80798;BME280;70202;52.238;10.680;2023-10-13T01:05:08;99886.28;;;16.31;100.00
80798;BME280;70202;52.238;10.680;2023-10-13T01:06:19;99895.84;;;16.38;100.00
80798;BME280;70202;52.238;10.680;2023-10-13T01:07:20;99892.22;;;16.38;100.00
80798;BME280;70202;52.238;10.680;2023-10-13T01:08:33;99887.50;;;16.40;100.00
80798;BME280;70202;52.238;10.680;2023-10-13T01:09:42;99873.50;;;16.30;100.00
80798;BME280;70202;52.238;10.680;2023-10-13T01:10:42;99887.50;;;16.40;100.00
80798;BME280;70202;52.238;10.680;2023-10-13T01:11:50;99893.00;;;16.40;100.00
80798;BME280;70202;52.238;10.680;2023-10-13T01:12:54;99860.88;;;16.28;100.00
80798;BME280;70202;52.238;10.680;2023-10-13T01:13:55;99880.13;;;16.40;100.00
80798;BME280;70202;52.238;10.680;2023-10-13T01:14:57;99873.09;;;16.36;100.00
80798;BME280;70202;52.238;10.680;2023-10-13T01:15:59;99888.28;;;16.42;100.00
80798;BME280;70202;52.238;10.680;2023-10-13T01:17:01;99867.91;;;16.32;100.00
80798;BME280;70202;52.238;10.680;2023-10-13T01:18:09;99879.03;;;16.43;100.00
80798;BME280;70202;52.238;10.680;2023-10-13T01:19:14;99881.78;;;16.43;100.00
80798;BME280;70202;52.238;10.680;2023-10-13T01:20:18;99866.72;;;16.36;100.00
80798;BME280;70202;52.238;10.680;2023-10-13T01:21:26;99859.69;;;16.32;100.00
80798;BME280;70202;52.238;10.680;2023-10-13T01:22:30;99849.00;;;16.27;100.00
80798;BME280;70202;52.238;10.680;2023-10-13T01:23:32;99830.16;;;16.08;100.00
80798;BME280;70202;52.238;10.680;2023-10-13T01:24:38;99882.66;;;16.43;100.00
80798;BME280;70202;52.238;10.680;2023-10-13T01:25:38;99863.97;;;16.36;100.00
80798;BME280;70202;52.238;10.680;2023-10-13T01:26:40;99857.81;;;16.32;100.00
80798;BME280;70202;52.238;10.680;2023-10-13T01:27:42;99881.56;;;16.46;100.00
80798;BME280;70202;52.238;10.680;2023-10-13T01:28:43;99875.41;;;16.42;100.00
80798;BME280;70202;52.238;10.680;2023-10-13T01:29:47;99852.38;;;16.31;100.00
80798;BME280;70202;52.238;10.680;2023-10-13T01:30:48;99881.69;;;16.44;100.00
80798;BME280;70202;52.238;10.680;2023-10-13T01:31:52;99885.06;;;16.48;100.00
80798;BME280;70202;52.238;10.680;2023-10-13T01:32:53;99886.88;;;16.49;100.00
80798;BME280;70202;52.238;10.680;2023-10-13T01:33:54;99871.56;;;16.45;100.00
80798;BME280;70202;52.238;10.680;2023-10-13T01:34:55;99874.19;;;16.46;100.00
80798;BME280;70202;52.238;10.680;2023-10-13T01:35:55;99879.50;;;16.49;100.00
80798;BME280;70202;52.238;10.680;2023-10-13T01:36:58;99888.63;;;16.50;100.00
80798;BME280;70202;52.238;10.680;2023-10-13T01:38:05;99873.66;;;16.41;100.00
80798;BME280;70202;52.238;10.680;2023-10-13T01:39:09;99846.03;;;16.30;100.00
80798;BME280;70202;52.238;10.680;2023-10-13T01:40:11;99881.25;;;16.50;100.00
80798;BME280;70202;52.238;10.680;2023-10-13T01:41:20;99883.88;;;16.52;100.00
80798;BME280;70202;52.238;10.680;2023-10-13T01:42:21;99856.59;;;16.36;100.00
80798;BME280;70202;52.238;10.680;2023-10-13T01:43:22;99883.88;;;16.52;100.00
80798;BME280;70202;52.238;10.680;2023-10-13T01:44:24;99875.75;;;16.50;100.00
80798;BME280;70202;52.238;10.680;2023-10-13T01:45:26;99882.91;;;16.53;100.00
80798;BME280;70202;52.238;10.680;2023-10-13T01:46:30;99885.53;;;16.55;100.00
80798;BME280;70202;52.238;10.680;2023-10-13T01:47:31;99871.03;;;16.53;100.00
80798;BME280;70202;52.238;10.680;2023-10-13T01:48:33;99849.78;;;16.42;100.00
80798;BME280;70202;52.238;10.680;2023-10-13T01:49:38;99862.31;;;16.46;100.00
80798;BME280;70202;52.238;10.680;2023-10-13T01:50:46;99872.59;;;16.57;100.00
80798;BME280;70202;52.238;10.680;2023-10-13T01:51:48;99854.63;;;16.51;100.00
80798;BME280;70202;52.238;10.680;2023-10-13T01:52:48;99860.59;;;16.58;100.00
80798;BME280;70202;52.238;10.680;2023-10-13T01:53:48;99865.09;;;16.59;100.00
80798;BME280;70202;52.238;10.680;2023-10-13T01:54:56;99860.47;;;16.59;100.00
80798;BME280;70202;52.238;10.680;2023-10-13T01:55:58;99858.59;;;16.60;100.00
80798;BME280;70202;52.238;10.680;2023-10-13T01:56:58;99845.63;;;16.49;100.00
80798;BME280;70202;52.238;10.680;2023-10-13T01:58:00;99819.75;;;16.39;100.00
80798;BME280;70202;52.238;10.680;2023-10-13T01:59:00;99859.59;;;16.59;100.00
80798;BME280;70202;52.238;10.680;2023-10-13T02:00:00;99853.97;;;16.60;100.00
80798;BME280;70202;52.238;10.680;2023-10-13T02:01:10;99839.13;;;16.50;100.00
80798;BME280;70202;52.238;10.680;2023-10-13T02:02:11;99826.91;;;16.41;100.00
80798;BME280;70202;52.238;10.680;2023-10-13T02:03:15;99862.22;;;16.60;100.00
80798;BME280;70202;52.238;10.680;2023-10-13T02:04:16;99855.84;;;16.60;100.00
80798;BME280;70202;52.238;10.680;2023-10-13T02:05:21;99859.47;;;16.60;100.00
80798;BME280;70202;52.238;10.680;2023-10-13T02:06:28;99844.63;;;16.50;100.00
80798;BME280;70202;52.238;10.680;2023-10-13T02:07:32;99851.47;;;16.57;100.00
80798;BME280;70202;52.238;10.680;2023-10-13T02:08:34;99851.47;;;16.57;100.00
80798;BME280;70202;52.238;10.680;2023-10-13T02:09:40;99852.34;;;16.58;100.00
80798;BME280;70202;52.238;10.680;2023-10-13T02:10:40;99849.59;;;16.58;100.00
80798;BME280;70202;52.238;10.680;2023-10-13T02:11:44;99851.34;;;16.59;100.00
80798;BME280;70202;52.238;10.680;2023-10-13T02:12:47;99845.16;;;16.55;100.00
80798;BME280;70202;52.238;10.680;2023-10-13T02:13:47;99851.34;;;16.59;100.00
80798;BME280;70202;52.238;10.680;2023-10-13T02:14:53;99827.47;;;16.46;100.00
80798;BME280;70202;52.238;10.680;2023-10-13T02:15:56;99852.22;;;16.59;100.00
80798;BME280;70202;52.238;10.680;2023-10-13T02:16:56;99852.66;;;16.53;100.00
80798;BME280;70202;52.238;10.680;2023-10-13T02:18:14;99842.34;;;16.57;100.00
80798;BME280;70202;52.238;10.680;2023-10-13T02:19:26;99848.47;;;16.60;100.00
80798;BME280;70202;52.238;10.680;2023-10-13T02:20:28;99846.16;;;16.54;100.00
80798;BME280;70202;52.238;10.680;2023-10-13T02:21:34;99846.59;;;16.61;100.00
80798;BME280;70202;52.238;10.680;2023-10-13T02:22:39;99846.59;;;16.61;100.00
80798;BME280;70202;52.238;10.680;2023-10-13T02:23:40;99850.25;;;16.61;100.00
80798;BME280;70202;52.238;10.680;2023-10-13T02:24:44;99845.72;;;16.60;100.00
80798;BME280;70202;52.238;10.680;2023-10-13T02:25:45;99833.41;;;16.53;100.00
80798;BME280;70202;52.238;10.680;2023-10-13T02:26:46;99819.53;;;16.42;100.00
80798;BME280;70202;52.238;10.680;2023-10-13T02:27:46;99847.72;;;16.58;100.00
80798;BME280;70202;52.238;10.680;2023-10-13T02:29:01;99842.34;;;16.57;100.00
80798;BME280;70202;52.238;10.680;2023-10-13T02:30:13;99834.38;;;16.52;100.00
80798;BME280;70202;52.238;10.680;2023-10-13T02:31:14;99839.78;;;16.54;100.00
80798;BME280;70202;52.238;10.680;2023-10-13T02:32:15;99825.03;;;16.42;100.00
80798;BME280;70202;52.238;10.680;2023-10-13T02:33:19;99823.84;;;16.46;100.00
80798;BME280;70202;52.238;10.680;2023-10-13T02:34:22;99818.66;;;16.41;100.00
80798;BME280;70202;52.238;10.680;2023-10-13T02:35:25;99818.78;;;16.40;100.00
80798;BME280;70202;52.238;10.680;2023-10-13T02:36:41;99804.59;;;16.33;100.00
80798;BME280;70202;52.238;10.680;2023-10-13T02:37:48;99820.34;;;16.44;100.00
80798;BME280;70202;52.238;10.680;2023-10-13T02:38:54;99814.03;;;16.29;100.00
80798;BME280;70202;52.238;10.680;2023-10-13T02:39:58;99821.75;;;16.37;100.00
80798;BME280;70202;52.238;10.680;2023-10-13T02:40:58;99802.38;;;16.25;100.00
80798;BME280;70202;52.238;10.680;2023-10-13T02:42:05;99801.50;;;16.25;100.00
80798;BME280;70202;52.238;10.680;2023-10-13T02:43:07;99826.38;;;16.36;100.00
80798;BME280;70202;52.238;10.680;2023-10-13T02:44:07;99826.44;;;16.35;100.00
80798;BME280;70202;52.238;10.680;2023-10-13T02:45:16;99801.94;;;16.19;100.00
80798;BME280;70202;52.238;10.680;2023-10-13T02:46:22;99801.94;;;16.19;100.00
80798;BME280;70202;52.238;10.680;2023-10-13T02:47:23;99812.59;;;16.23;100.00
80798;BME280;70202;52.238;10.680;2023-10-13T02:48:25;99817.66;;;16.30;100.00
80798;BME280;70202;52.238;10.680;2023-10-13T02:49:30;99815.91;;;16.29;100.00
80798;BME280;70202;52.238;10.680;2023-10-13T02:50:39;99797.66;;;16.15;100.00
80798;BME280;70202;52.238;10.680;2023-10-13T02:51:43;99813.69;;;16.21;100.00
80798;BME280;70202;52.238;10.680;2023-10-13T02:52:43;99809.63;;;16.27;100.00
80798;BME280;70202;52.238;10.680;2023-10-13T02:53:48;99814.25;;;16.26;100.00
80798;BME280;70202;52.238;10.680;2023-10-13T02:54:52;99791.34;;;16.13;100.00
80798;BME280;70202;52.238;10.680;2023-10-13T02:55:53;99809.94;;;16.22;100.00
80798;BME280;70202;52.238;10.680;2023-10-13T02:56:55;99810.72;;;16.24;100.00
80798;BME280;70202;52.238;10.680;2023-10-13T02:58:03;99817.22;;;16.23;100.00
80798;BME280;70202;52.238;10.680;2023-10-13T02:59:04;99821.72;;;16.24;100.00
80798;BME280;70202;52.238;10.680;2023-10-13T03:00:08;99793.13;;;16.14;100.00
80798;BME280;70202;52.238;10.680;2023-10-13T03:01:17;99809.31;;;16.18;100.00
80798;BME280;70202;52.238;10.680;2023-10-13T03:02:18;99809.19;;;16.20;100.00
80798;BME280;70202;52.238;10.680;2023-10-13T03:03:24;99810.19;;;16.19;100.00
80798;BME280;70202;52.238;10.680;2023-10-13T03:04:24;99809.72;;;16.12;100.00
80798;BME280;70202;52.238;10.680;2023-10-13T03:05:26;99815.75;;;16.17;100.00
80798;BME280;70202;52.238;10.680;2023-10-13T03:06:30;99811.16;;;16.18;100.00
80798;BME280;70202;52.238;10.680;2023-10-13T03:07:33;99793.34;;;16.11;100.00
80798;BME280;70202;52.238;10.680;2023-10-13T03:08:33;99803.13;;;16.15;100.00
80798;BME280;70202;52.238;10.680;2023-10-13T03:09:37;99802.91;;;16.18;100.00
80798;BME280;70202;52.238;10.680;2023-10-13T03:10:37;99766.06;;;15.95;100.00
80798;BME280;70202;52.238;10.680;2023-10-13T03:11:48;99802.16;;;16.16;100.00
80798;BME280;70202;52.238;10.680;2023-10-13T03:12:49;99804.88;;;16.16;100.00
80798;BME280;70202;52.238;10.680;2023-10-13T03:13:50;99802.25;;;16.14;100.00
80798;BME280;70202;52.238;10.680;2023-10-13T03:14:53;99785.31;;;16.08;100.00
80798;BME280;70202;52.238;10.680;2023-10-13T03:16:15;99798.72;;;16.12;100.00
80798;BME280;70202;52.238;10.680;2023-10-13T03:17:16;99795.97;;;16.12;100.00
80798;BME280;70202;52.238;10.680;2023-10-13T03:18:18;99786.50;;;16.04;100.00
80798;BME280;70202;52.238;10.680;2023-10-13T03:19:19;99780.34;;;16.00;100.00
80798;BME280;70202;52.238;10.680;2023-10-13T03:20:19;99796.09;;;16.11;100.00
80798;BME280;70202;52.238;10.680;2023-10-13T03:21:24;99790.69;;;16.09;100.00
80798;BME280;70202;52.238;10.680;2023-10-13T03:22:31;99764.31;;;15.94;100.00
80798;BME280;70202;52.238;10.680;2023-10-13T03:23:32;99764.19;;;15.95;100.00
80798;BME280;70202;52.238;10.680;2023-10-13T03:24:46;99793.44;;;16.09;100.00
80798;BME280;70202;52.238;10.680;2023-10-13T03:25:46;99781.69;;;16.07;100.00
80798;BME280;70202;52.238;10.680;2023-10-13T03:26:50;99747.28;;;15.89;100.00
80798;BME280;70202;52.238;10.680;2023-10-13T03:27:52;99785.31;;;16.08;100.00
80798;BME280;70202;52.238;10.680;2023-10-13T03:28:53;99761.31;;;15.97;100.00
80798;BME280;70202;52.238;10.680;2023-10-13T03:29:54;99775.53;;;16.04;100.00
80798;BME280;70202;52.238;10.680;2023-10-13T03:30:54;99757.63;;;15.98;100.00
80798;BME280;70202;52.238;10.680;2023-10-13T03:31:55;99760.34;;;15.98;100.00
80798;BME280;70202;52.238;10.680;2023-10-13T03:33:08;99748.91;;;15.91;100.00
80798;BME280;70202;52.238;10.680;2023-10-13T03:34:25;99755.94;;;15.95;100.00
80798;BME280;70202;52.238;10.680;2023-10-13T03:35:29;99774.31;;;16.08;100.00
80798;BME280;70202;52.238;10.680;2023-10-13T03:36:38;99782.44;;;16.09;100.00
80798;BME280;70202;52.238;10.680;2023-10-13T03:37:57;99754.19;;;15.94;100.00
80798;BME280;70202;52.238;10.680;2023-10-13T03:38:57;99758.28;;;16.02;100.00
80798;BME280;70202;52.238;10.680;2023-10-13T03:39:57;99738.72;;;15.93;100.00
80798;BME280;70202;52.238;10.680;2023-10-13T03:40:59;99771.91;;;16.16;100.00
80798;BME280;70202;52.238;10.680;2023-10-13T03:42:19;99773.66;;;16.17;100.00
80798;BME280;70202;52.238;10.680;2023-10-13T03:43:22;99750.25;;;16.11;100.00
80798;BME280;70202;52.238;10.680;2023-10-13T03:44:22;99756.19;;;16.18;100.00
80798;BME280;70202;52.238;10.680;2023-10-13T03:45:23;99758.59;;;16.22;100.00
80798;BME280;70202;52.238;10.680;2023-10-13T03:46:25;99740.16;;;16.12;100.00
80798;BME280;70202;52.238;10.680;2023-10-13T03:47:26;99741.69;;;16.16;100.00
80798;BME280;70202;52.238;10.680;2023-10-13T03:48:27;99736.06;;;16.17;100.00
80798;BME280;70202;52.238;10.680;2023-10-13T03:49:27;99731.13;;;16.22;100.00
80798;BME280;70202;52.238;10.680;2023-10-13T03:50:29;99744.22;;;16.32;100.00
80798;BME280;70202;52.238;10.680;2023-10-13T03:51:31;99738.81;;;16.30;100.00
80798;BME280;70202;52.238;10.680;2023-10-13T03:52:32;99751.28;;;16.36;100.00
80798;BME280;70202;52.238;10.680;2023-10-13T03:53:37;99730.81;;;16.27;100.00
80798;BME280;70202;52.238;10.680;2023-10-13T03:54:52;99730.69;;;16.29;100.00
80798;BME280;70202;52.238;10.680;2023-10-13T03:55:53;99746.41;;;16.39;100.00
80798;BME280;70202;52.238;10.680;2023-10-13T03:57:08;99741.81;;;16.40;100.00
80798;BME280;70202;52.238;10.680;2023-10-13T03:58:11;99725.88;;;16.32;100.00
80798;BME280;70202;52.238;10.680;2023-10-13T03:59:13;99744.31;;;16.43;100.00
80798;BME280;70202;52.238;10.680;2023-10-13T04:00:14;99740.59;;;16.44;100.00
80798;BME280;70202;52.238;10.680;2023-10-13T04:01:24;99740.47;;;16.45;100.00
80798;BME280;70202;52.238;10.680;2023-10-13T04:02:54;99723.88;;;16.34;100.00
80798;BME280;70202;52.238;10.680;2023-10-13T04:04:16;99720.13;;;16.35;100.00
80798;BME280;70202;52.238;10.680;2023-10-13T04:05:32;99740.34;;;16.47;100.00
80798;BME280;70202;52.238;10.680;2023-10-13T04:06:35;99738.47;;;16.47;100.00
80798;BME280;70202;52.238;10.680;2023-10-13T04:07:48;99735.66;;;16.49;100.00
80798;BME280;70202;52.238;10.680;2023-10-13T04:09:06;99719.81;;;16.40;100.00
80798;BME280;70202;52.238;10.680;2023-10-13T04:10:25;99734.84;;;16.47;100.00
80798;BME280;70202;52.238;10.680;2023-10-13T04:12:02;99715.06;;;16.42;100.00
80798;BME280;70202;52.238;10.680;2023-10-13T04:13:03;99712.22;;;16.43;100.00
80798;BME280;70202;52.238;10.680;2023-10-13T04:14:15;99715.88;;;16.44;100.00
80798;BME280;70202;52.238;10.680;2023-10-13T04:15:44;99720.03;;;16.49;100.00
80798;BME280;70202;52.238;10.680;2023-10-13T04:17:03;99713.75;;;16.47;100.00
80798;BME280;70202;52.238;10.680;2023-10-13T04:18:12;99722.56;;;16.53;100.00
80798;BME280;70202;52.238;10.680;2023-10-13T04:19:34;99710.91;;;16.49;100.00
80798;BME280;70202;52.238;10.680;2023-10-13T04:20:54;99718.28;;;16.48;100.00
80798;BME280;70202;52.238;10.680;2023-10-13T04:22:07;99706.63;;;16.45;100.00
80798;BME280;70202;52.238;10.680;2023-10-13T04:23:14;99716.41;;;16.49;100.00
80798;BME280;70202;52.238;10.680;2023-10-13T04:24:26;99712.53;;;16.52;100.00
80798;BME280;70202;52.238;10.680;2023-10-13T04:25:59;99718.81;;;16.54;100.00
80798;BME280;70202;52.238;10.680;2023-10-13T04:27:09;99708.38;;;16.46;100.00
80798;BME280;70202;52.238;10.680;2023-10-13T04:28:15;99711.44;;;16.54;100.00
80798;BME280;70202;52.238;10.680;2023-10-13T04:29:34;99704.63;;;16.47;100.00
80798;BME280;70202;52.238;10.680;2023-10-13T04:30:53;99722.44;;;16.54;100.00
80798;BME280;70202;52.238;10.680;2023-10-13T04:31:57;99696.63;;;16.44;100.00
80798;BME280;70202;52.238;10.680;2023-10-13T04:33:00;99697.38;;;16.46;100.00
80798;BME280;70202;52.238;10.680;2023-10-13T04:34:21;99713.31;;;16.54;100.00
80798;BME280;70202;52.238;10.680;2023-10-13T04:35:28;99692.34;;;16.40;100.00
80798;BME280;70202;52.238;10.680;2023-10-13T04:36:35;99654.28;;;16.21;100.00
80798;BME280;70202;52.238;10.680;2023-10-13T04:37:36;99695.38;;;16.48;100.00
80798;BME280;70202;52.238;10.680;2023-10-13T04:38:59;99680.88;;;16.46;100.00
80798;BME280;70202;52.238;10.680;2023-10-13T04:40:06;99687.25;;;16.46;100.00
80798;BME280;70202;52.238;10.680;2023-10-13T04:41:10;99683.63;;;16.46;100.00
80798;BME280;70202;52.238;10.680;2023-10-13T04:42:22;99687.13;;;16.48;100.00
80798;BME280;70202;52.238;10.680;2023-10-13T04:43:41;99683.41;;;16.49;100.00
80798;BME280;70202;52.238;10.680;2023-10-13T04:44:55;99703.72;;;16.59;100.00
80798;BME280;70202;52.238;10.680;2023-10-13T04:46:01;99679.66;;;16.50;100.00
80798;BME280;70202;52.238;10.680;2023-10-13T04:47:14;99697.22;;;16.60;100.00
80798;BME280;70202;52.238;10.680;2023-10-13T04:48:18;99695.25;;;16.62;100.00
80798;BME280;70202;52.238;10.680;2023-10-13T04:49:24;99696.25;;;16.61;100.00
80798;BME280;70202;52.238;10.680;2023-10-13T04:50:46;99698.00;;;16.62;100.00
80798;BME280;70202;52.238;10.680;2023-10-13T04:51:46;99689.75;;;16.62;100.00
80798;BME280;70202;52.238;10.680;2023-10-13T04:52:53;99677.66;;;16.52;100.00
80798;BME280;70202;52.238;10.680;2023-10-13T04:54:03;99676.34;;;16.58;100.00
80798;BME280;70202;52.238;10.680;2023-10-13T04:55:12;99671.72;;;16.58;100.00
80798;BME280;70202;52.238;10.680;2023-10-13T04:56:43;99660.19;;;16.53;100.00
80798;BME280;70202;52.238;10.680;2023-10-13T04:58:02;99672.91;;;16.67;100.00
80798;BME280;70202;52.238;10.680;2023-10-13T04:59:28;99662.47;;;16.59;100.00
80798;BME280;70202;52.238;10.680;2023-10-13T05:00:38;99662.34;;;16.61;100.00
80798;BME280;70202;52.238;10.680;2023-10-13T05:02:16;99659.72;;;16.59;100.00
80798;BME280;70202;52.238;10.680;2023-10-13T05:03:44;99673.78;;;16.67;100.00
80798;BME280;70202;52.238;10.680;2023-10-13T05:04:53;99638.63;;;16.47;100.00
80798;BME280;70202;52.238;10.680;2023-10-13T05:06:06;99680.28;;;16.66;100.00
80798;BME280;70202;52.238;10.680;2023-10-13T05:07:32;99669.50;;;16.63;100.00
80798;BME280;70202;52.238;10.680;2023-10-13T05:08:51;99645.56;;;16.53;100.00
80798;BME280;70202;52.238;10.680;2023-10-13T05:10:10;99659.72;;;16.59;100.00
80798;BME280;70202;52.238;10.680;2023-10-13T05:11:29;99662.34;;;16.61;100.00
80798;BME280;70202;52.238;10.680;2023-10-13T05:12:48;99669.06;;;16.69;100.00
80798;BME280;70202;52.238;10.680;2023-10-13T05:14:06;99643.69;;;16.53;100.00
80798;BME280;70202;52.238;10.680;2023-10-13T05:15:25;99655.31;;;16.69;100.00
80798;BME280;70202;52.238;10.680;2023-10-13T05:16:44;99661.91;;;16.67;100.00
80798;BME280;70202;52.238;10.680;2023-10-13T05:18:03;99668.63;;;16.76;100.00
80798;BME280;70202;52.238;10.680;2023-10-13T05:19:22;99647.63;;;16.62;100.00
80798;BME280;70202;52.238;10.680;2023-10-13T05:20:41;99654.41;;;16.69;100.00
80798;BME280;70202;52.238;10.680;2023-10-13T05:22:00;99648.91;;;16.69;100.00
80798;BME280;70202;52.238;10.680;2023-10-13T05:23:19;99657.94;;;16.71;100.00
80798;BME280;70202;52.238;10.680;2023-10-13T05:24:38;99648.03;;;16.68;100.00
80798;BME280;70202;52.238;10.680;2023-10-13T05:26:02;99653.00;;;16.76;100.00
80798;BME280;70202;52.238;10.680;2023-10-13T05:27:21;99653.13;;;16.74;100.00
80798;BME280;70202;52.238;10.680;2023-10-13T05:28:40;99654.66;;;16.79;100.00
80798;BME280;70202;52.238;10.680;2023-10-13T05:29:59;99635.75;;;16.74;100.00
80798;BME280;70202;52.238;10.680;2023-10-13T05:31:18;99655.84;;;16.87;100.00
80798;BME280;70202;52.238;10.680;2023-10-13T05:32:36;99646.16;;;16.82;100.00
80798;BME280;70202;52.238;10.680;2023-10-13T05:33:55;99659.25;;;16.91;100.00
80798;BME280;70202;52.238;10.680;2023-10-13T05:35:15;99635.16;;;16.82;100.00
80798;BME280;70202;52.238;10.680;2023-10-13T05:36:34;99654.50;;;16.93;100.00
80798;BME280;70202;52.238;10.680;2023-10-13T05:37:53;99640.22;;;16.88;100.00
80798;BME280;70202;52.238;10.680;2023-10-13T05:39:12;99634.72;;;16.88;100.00
80798;BME280;70202;52.238;10.680;2023-10-13T05:40:31;99636.59;;;16.87;100.00
80798;BME280;70202;52.238;10.680;2023-10-13T05:41:50;99627.47;;;16.87;100.00
80798;BME280;70202;52.238;10.680;2023-10-13T05:43:08;99635.44;;;16.90;100.00
80798;BME280;70202;52.238;10.680;2023-10-13T05:44:27;99632.69;;;16.90;100.00
80798;BME280;70202;52.238;10.680;2023-10-13T05:45:37;99637.75;;;16.96;100.00
80798;BME280;70202;52.238;10.680;2023-10-13T05:47:00;99629.06;;;16.89;100.00
80798;BME280;70202;52.238;10.680;2023-10-13T05:48:33;99652.16;;;16.99;100.00